Time;durP1;ratioP1;P1;durP2;ratioP2;P2;SDS_P1;SDS_P2;PMS_P1;PMS_P2;Temp;Humidity;BMP_temperature;BMP_pressure;BME280_temperature;BME280_humidity;BME280_pressure;Samples;Min_cycle;Max_cycle;Signal;HPM_P1;HPM_P2
2023/06/27 00:01:15;;;;;;;8.60;5.90;;;;;;;18.10;68.27;99783.59;105416;278;39399;-71
2023/06/27 00:03:51;;;;;;;9.20;6.50;;;;;;;18.09;68.32;99833.09;105448;278;38263;-72
2023/06/27 00:06:26;;;;;;;12.40;7.10;;;;;;;18.14;67.75;99836.27;105406;279;38228;-72
2023/06/27 00:09:00;;;;;;;12.20;7.10;;;;;;;18.19;66.89;99830.21;105269;276;38545;-72
2023/06/27 00:11:34;;;;;;;10.50;6.70;;;;;;;18.25;66.18;99793.70;105893;278;38449;-72
2023/06/27 00:14:09;;;;;;;7.80;6.10;;;;;;;18.32;65.12;99791.89;105485;278;38363;-72
2023/06/27 00:16:44;;;;;;;10.30;6.60;;;;;;;18.40;64.68;99808.96;105466;278;38227;-72
2023/06/27 00:19:19;;;;;;;8.60;6.70;;;;;;;18.46;64.64;99814.45;105486;278;38495;-72
2023/06/27 00:21:53;;;;;;;6.90;6.20;;;;;;;18.52;64.43;99814.71;105376;278;39951;-72
2023/06/27 00:24:27;;;;;;;9.50;6.40;;;;;;;18.55;63.87;99803.53;105925;278;39905;-72
2023/06/27 00:27:01;;;;;;;7.60;6.20;;;;;;;18.58;63.54;99814.23;105492;278;38841;-72
2023/06/27 00:29:36;;;;;;;6.70;6.10;;;;;;;18.61;63.42;99816.66;105303;278;38084;-72
2023/06/27 00:32:12;;;;;;;8.40;6.30;;;;;;;18.61;62.93;99812.38;105924;278;37973;-72
2023/06/27 00:34:46;;;;;;;6.50;5.90;;;;;;;18.62;62.80;99812.33;105486;278;40697;-72
2023/06/27 00:37:20;;;;;;;6.80;6.20;;;;;;;18.62;62.61;99807.34;105899;278;39877;-72
2023/06/27 00:39:55;;;;;;;7.50;5.80;;;;;;;18.64;62.52;99806.00;105942;278;38857;-71
2023/06/27 00:42:29;;;;;;;8.00;5.60;;;;;;;18.67;62.43;99803.42;105336;278;38224;-71
2023/06/27 00:45:03;;;;;;;6.80;6.00;;;;;;;18.70;62.42;99794.59;105505;278;38243;-71
2023/06/27 00:47:38;;;;;;;7.80;5.70;;;;;;;18.72;62.37;99798.30;105482;278;38771;-71
2023/06/27 00:50:13;;;;;;;7.40;5.90;;;;;;;18.74;62.26;99794.80;105921;278;38734;-71
2023/06/27 00:52:47;;;;;;;9.80;6.20;;;;;;;18.75;62.30;99802.98;105464;278;38514;-71
2023/06/27 00:55:21;;;;;;;8.20;5.70;;;;;;;18.76;62.38;99803.79;105824;278;173984;-72
2023/06/27 00:57:55;;;;;;;8.30;6.00;;;;;;;18.76;62.43;99800.10;105493;278;38679;-71
2023/06/27 01:00:29;;;;;;;6.60;5.60;;;;;;;18.76;62.26;99797.98;105497;278;38364;-71
2023/06/27 01:03:04;;;;;;;6.50;5.40;;;;;;;18.75;62.40;99801.70;105511;278;38384;-71
2023/06/27 01:05:38;;;;;;;7.10;5.10;;;;;;;18.74;62.60;99808.14;105496;278;38353;-71
2023/06/27 01:08:17;;;;;;;6.10;4.80;;;;;;;18.75;62.85;99800.86;105933;278;39458;-71
2023/06/27 01:10:56;;;;;;;7.40;5.20;;;;;;;18.77;63.10;99795.25;105857;278;38444;-71
2023/06/27 01:13:33;;;;;;;10.20;5.40;;;;;;;18.77;63.27;99800.14;105397;278;174055;-71
2023/06/27 01:16:08;;;;;;;6.50;5.00;;;;;;;18.78;63.22;99805.04;105470;278;38258;-72
2023/06/27 01:18:44;;;;;;;7.20;5.10;;;;;;;18.81;63.49;99806.41;105526;278;39390;-72
2023/06/27 01:21:18;;;;;;;6.70;5.50;;;;;;;18.81;63.58;99810.42;105507;278;38912;-72
2023/06/27 01:23:58;;;;;;;6.40;4.70;;;;;;;18.81;63.76;99808.86;105519;278;38476;-72
2023/06/27 01:26:32;;;;;;;5.70;4.20;;;;;;;18.79;63.83;99809.22;105444;278;38869;-72
2023/06/27 01:29:06;;;;;;;6.10;4.90;;;;;;;18.80;64.02;99804.37;105516;278;38283;-72
2023/06/27 01:31:48;;;;;;;5.50;4.80;;;;;;;18.81;64.16;99804.59;105508;278;39431;-72
2023/06/27 01:34:26;;;;;;;5.70;4.70;;;;;;;18.84;64.23;99804.77;105928;278;39400;-72
2023/06/27 01:37:05;;;;;;;6.10;4.60;;;;;;;18.86;64.49;99798.95;105489;278;40106;-72
2023/06/27 01:39:45;;;;;;;6.30;4.80;;;;;;;18.86;64.71;99793.27;105485;278;38387;-72
2023/06/27 01:42:21;;;;;;;4.90;4.50;;;;;;;18.87;64.82;99799.23;105502;278;38387;-72
2023/06/27 01:44:55;;;;;;;5.20;4.40;;;;;;;18.86;65.06;99799.64;105524;278;38461;-72
2023/06/27 01:47:30;;;;;;;5.40;4.40;;;;;;;18.86;65.21;99800.84;105515;278;39419;-72
2023/06/27 01:50:04;;;;;;;6.70;4.80;;;;;;;18.87;65.36;99793.92;105481;278;38786;-72
2023/06/27 01:52:38;;;;;;;5.30;4.60;;;;;;;18.88;65.60;99790.26;105490;278;38207;-72
2023/06/27 01:55:13;;;;;;;6.60;4.90;;;;;;;18.89;65.55;99790.39;105893;278;38292;-72
2023/06/27 01:57:47;;;;;;;6.20;5.60;;;;;;;18.88;65.67;99789.70;105510;278;38698;-72
2023/06/27 02:00:21;;;;;;;6.40;4.80;;;;;;;18.89;65.79;99792.16;105512;278;38282;-72
2023/06/27 02:02:55;;;;;;;5.50;4.50;;;;;;;18.88;65.91;99798.40;105459;278;38452;-72
2023/06/27 02:05:30;;;;;;;5.30;4.80;;;;;;;18.88;66.06;99795.75;105482;278;39890;-72
2023/06/27 02:08:05;;;;;;;5.60;5.00;;;;;;;18.88;66.30;99799.61;105478;278;38272;-72
2023/06/27 02:10:39;;;;;;;6.00;5.20;;;;;;;18.89;66.40;99789.63;105937;278;38484;-71
2023/06/27 02:13:13;;;;;;;6.00;4.70;;;;;;;18.92;66.81;99790.48;105913;278;38374;-71
2023/06/27 02:15:47;;;;;;;7.50;5.00;;;;;;;18.92;66.91;99789.91;105485;278;39567;-71
2023/06/27 02:18:21;;;;;;;6.70;5.70;;;;;;;18.93;67.27;99792.36;105460;278;38814;-71
2023/06/27 02:20:55;;;;;;;5.30;4.70;;;;;;;18.92;67.66;99796.50;105449;278;39367;-71
2023/06/27 02:23:30;;;;;;;7.20;5.30;;;;;;;18.93;68.01;99802.41;105476;278;38644;-71
2023/06/27 02:26:06;;;;;;;6.40;5.70;;;;;;;18.92;68.48;99809.38;105491;278;38252;-71
2023/06/27 02:28:41;;;;;;;6.00;5.40;;;;;;;18.92;69.40;99809.97;105458;278;38708;-71
2023/06/27 02:31:15;;;;;;;7.40;5.20;;;;;;;18.88;69.85;99805.80;105459;278;39403;-72
2023/06/27 02:33:50;;;;;;;7.70;5.30;;;;;;;18.87;70.39;99792.81;105487;278;38382;-72
2023/06/27 02:36:27;;;;;;;5.90;5.20;;;;;;;18.84;70.76;99789.39;105457;278;38831;-72
2023/06/27 02:39:02;;;;;;;6.50;5.90;;;;;;;18.82;71.22;99777.73;105461;278;38990;-72
2023/06/27 02:41:36;;;;;;;8.90;6.20;;;;;;;18.81;71.33;99767.86;105460;278;38372;-72
2023/06/27 02:44:11;;;;;;;6.00;5.40;;;;;;;18.81;71.75;99765.77;105905;278;38275;-72
2023/06/27 02:46:44;;;;;;;6.50;5.60;;;;;;;18.82;71.94;99761.98;105460;278;38243;-72
2023/06/27 02:49:19;;;;;;;6.40;5.80;;;;;;;18.80;72.27;99754.35;105905;278;39669;-72
2023/06/27 02:51:53;;;;;;;7.00;6.40;;;;;;;18.78;72.63;99752.34;105457;278;39696;-72
2023/06/27 02:54:27;;;;;;;8.20;6.20;;;;;;;18.77;73.09;99746.79;105486;278;39955;-72
2023/06/27 02:57:02;;;;;;;7.00;6.40;;;;;;;18.76;73.21;99745.31;105434;278;39666;-71
2023/06/27 02:59:36;;;;;;;7.40;6.10;;;;;;;18.74;73.42;99745.98;105455;278;38228;-71
2023/06/27 03:02:11;;;;;;;7.20;6.00;;;;;;;18.74;73.68;99747.25;105470;278;39615;-72
2023/06/27 03:04:46;;;;;;;7.90;6.30;;;;;;;18.74;73.96;99739.84;105488;278;38295;-72
2023/06/27 03:07:21;;;;;;;7.20;6.30;;;;;;;18.69;74.14;99730.83;105317;277;38434;-72
2023/06/27 03:09:55;;;;;;;8.10;6.90;;;;;;;18.64;74.75;99720.63;105356;278;171494;-72
2023/06/27 03:12:29;;;;;;;7.70;6.40;;;;;;;18.57;75.14;99723.84;105448;278;38774;-72
2023/06/27 03:15:04;;;;;;;7.50;6.60;;;;;;;18.50;75.61;99727.40;105472;278;38223;-72
2023/06/27 03:17:38;;;;;;;9.00;6.70;;;;;;;18.44;75.97;99722.21;104662;278;893515;-72
2023/06/27 03:20:14;;;;;;;8.50;6.50;;;;;;;18.47;76.37;99722.40;105276;278;38327;-72
2023/06/27 03:22:48;;;;;;;8.50;6.80;;;;;;;18.46;76.64;99728.48;105501;278;39938;-72
2023/06/27 03:25:23;;;;;;;9.10;7.20;;;;;;;18.45;77.17;99737.58;105465;278;39364;-72
2023/06/27 03:27:57;;;;;;;7.70;6.10;;;;;;;18.47;77.45;99743.95;106026;277;38256;-71
2023/06/27 03:30:31;;;;;;;8.70;6.50;;;;;;;18.47;77.65;99736.47;105447;278;39699;-71
2023/06/27 03:33:06;;;;;;;7.70;6.90;;;;;;;18.49;77.73;99734.02;105433;278;38807;-72
2023/06/27 03:35:40;;;;;;;7.60;6.60;;;;;;;18.48;78.00;99739.20;105474;278;38564;-72
2023/06/27 03:38:14;;;;;;;7.90;7.00;;;;;;;18.49;78.36;99743.23;105894;278;38549;-72
2023/06/27 03:40:48;;;;;;;8.10;7.20;;;;;;;18.53;78.50;99742.20;105477;278;38367;-72
2023/06/27 03:43:25;;;;;;;7.40;6.60;;;;;;;18.53;78.35;99738.80;105430;278;39556;-72
2023/06/27 03:45:59;;;;;;;8.00;6.70;;;;;;;18.53;78.51;99741.67;105457;278;38306;-72
2023/06/27 03:48:33;;;;;;;8.10;6.70;;;;;;;18.55;78.60;99749.06;105480;278;38460;-72
2023/06/27 03:51:07;;;;;;;9.20;6.60;;;;;;;18.58;78.89;99752.73;105477;278;39204;-72
2023/06/27 03:53:41;;;;;;;10.10;7.30;;;;;;;18.61;79.25;99754.82;105448;278;39702;-72
2023/06/27 03:56:16;;;;;;;7.80;6.90;;;;;;;18.66;79.49;99763.39;105355;278;38511;-72
2023/06/27 03:58:50;;;;;;;8.00;6.60;;;;;;;18.69;79.63;99766.02;105450;278;38304;-72
2023/06/27 04:01:24;;;;;;;7.00;6.20;;;;;;;18.69;79.56;99765.67;105454;278;38698;-72
2023/06/27 04:03:58;;;;;;;7.20;6.10;;;;;;;18.71;79.55;99766.73;105974;278;38937;-72
2023/06/27 04:06:32;;;;;;;8.00;7.20;;;;;;;18.71;79.52;99760.40;105368;278;173971;-72
2023/06/27 04:09:07;;;;;;;7.70;6.90;;;;;;;18.70;79.56;99763.27;105477;278;38260;-72
2023/06/27 04:11:41;;;;;;;7.20;6.50;;;;;;;18.72;79.53;99774.09;105423;278;38298;-72
2023/06/27 04:14:17;;;;;;;8.00;7.20;;;;;;;18.74;79.82;99783.45;105448;278;38160;-72
2023/06/27 04:16:51;;;;;;;8.30;7.00;;;;;;;18.73;79.59;99784.19;105457;278;38517;-72
2023/06/27 04:19:25;;;;;;;7.90;7.10;;;;;;;18.73;79.62;99781.94;105269;278;38572;-72
2023/06/27 04:21:59;;;;;;;7.10;6.40;;;;;;;18.74;79.84;99777.59;105910;278;40050;-72
2023/06/27 04:24:33;;;;;;;7.10;6.40;;;;;;;18.75;79.82;99781.06;105476;277;39636;-72
2023/06/27 04:27:09;;;;;;;7.30;6.60;;;;;;;18.75;80.10;99780.89;105638;277;38313;-72
2023/06/27 04:29:43;;;;;;;12.80;7.00;;;;;;;18.77;80.14;99782.51;105658;277;38711;-72
2023/06/27 04:32:17;;;;;;;7.40;6.70;;;;;;;18.80;80.05;99778.54;105406;277;39735;-72
2023/06/27 04:34:51;;;;;;;7.90;7.10;;;;;;;18.84;80.20;99779.30;105361;279;38261;-72
2023/06/27 04:37:25;;;;;;;8.60;6.90;;;;;;;18.86;80.13;99778.41;105375;277;38809;-72
2023/06/27 04:39:59;;;;;;;9.20;7.10;;;;;;;18.85;80.18;99774.27;105695;277;38279;-72
2023/06/27 04:42:33;;;;;;;8.20;7.40;;;;;;;18.84;80.35;99771.36;105652;277;38519;-72
2023/06/27 04:45:08;;;;;;;8.50;7.50;;;;;;;18.82;80.39;99764.56;105665;277;38286;-72
2023/06/27 04:47:42;;;;;;;9.40;7.80;;;;;;;18.84;80.83;99756.14;105663;277;38785;-72
2023/06/27 04:50:19;;;;;;;10.80;7.90;;;;;;;18.88;80.85;99757.05;105679;277;38681;-72
2023/06/27 04:52:52;;;;;;;9.50;7.70;;;;;;;18.92;80.96;99750.18;106038;281;38215;-72
2023/06/27 04:55:26;;;;;;;9.80;8.10;;;;;;;18.96;81.22;99747.73;105669;277;38390;-72
2023/06/27 04:58:00;;;;;;;9.70;8.30;;;;;;;18.96;81.11;99747.70;105642;277;39027;-72
2023/06/27 05:00:34;;;;;;;8.00;7.00;;;;;;;18.97;81.18;99743.02;105652;277;38366;-72
2023/06/27 05:03:08;;;;;;;8.00;7.10;;;;;;;19.02;81.18;99738.19;106049;277;38345;-72
2023/06/27 05:05:43;;;;;;;9.00;8.10;;;;;;;19.05;81.12;99738.45;105672;277;38777;-72
2023/06/27 05:08:17;;;;;;;8.90;7.50;;;;;;;19.06;81.13;99736.94;105683;277;39618;-72
2023/06/27 05:10:52;;;;;;;10.90;8.60;;;;;;;19.06;81.00;99735.02;105633;277;39409;-72
2023/06/27 05:13:26;;;;;;;8.30;7.40;;;;;;;19.06;81.19;99731.15;105594;277;39287;-72
2023/06/27 05:16:00;;;;;;;8.30;7.00;;;;;;;19.05;81.22;99734.36;105995;277;38244;-72
2023/06/27 05:18:35;;;;;;;8.00;6.80;;;;;;;19.08;81.48;99726.54;105572;277;39104;-72
2023/06/27 05:21:09;;;;;;;7.70;6.90;;;;;;;19.11;81.50;99722.27;105586;277;38505;-72
2023/06/27 05:23:44;;;;;;;7.60;6.90;;;;;;;19.13;81.49;99720.70;106032;277;38682;-72
2023/06/27 05:26:18;;;;;;;10.00;6.90;;;;;;;19.16;81.72;99722.77;105666;285;38534;-72
2023/06/27 05:28:52;;;;;;;9.90;7.00;;;;;;;19.15;81.85;99722.31;105625;277;38610;-72
2023/06/27 05:31:27;;;;;;;7.50;6.00;;;;;;;19.15;81.96;99725.80;106019;277;39341;-72
2023/06/27 05:34:01;;;;;;;7.70;6.50;;;;;;;19.16;82.08;99728.40;105624;277;38688;-72
2023/06/27 05:36:35;;;;;;;6.90;5.80;;;;;;;19.15;82.21;99727.25;105528;277;173979;-72
2023/06/27 05:39:09;;;;;;;21.40;6.30;;;;;;;19.13;82.51;99731.83;105625;277;38249;-71
2023/06/27 05:41:43;;;;;;;8.10;5.50;;;;;;;19.14;82.34;99740.05;105612;277;38934;-71
2023/06/27 05:44:18;;;;;;;8.20;4.20;;;;;;;19.09;82.48;99744.52;105597;277;38228;-71
2023/06/27 05:46:52;;;;;;;6.40;4.10;;;;;;;19.06;82.60;99752.53;105337;277;38220;-72
2023/06/27 05:49:26;;;;;;;7.20;3.60;;;;;;;19.05;83.05;99754.89;105601;277;39421;-72
2023/06/27 05:52:00;;;;;;;3.80;3.00;;;;;;;19.05;82.95;99754.88;105954;277;38827;-72
2023/06/27 05:54:34;;;;;;;5.20;3.40;;;;;;;18.97;81.69;99771.10;105563;285;39966;-72
2023/06/27 05:57:09;;;;;;;4.00;2.80;;;;;;;18.89;81.60;99772.20;105541;277;38691;-72
2023/06/27 05:59:43;;;;;;;4.50;2.80;;;;;;;18.85;81.57;99775.35;105538;277;38715;-72
2023/06/27 06:02:17;;;;;;;4.00;2.40;;;;;;;18.83;81.31;99784.17;105557;277;38364;-72
2023/06/27 06:04:54;;;;;;;5.00;2.60;;;;;;;18.73;80.70;99787.23;105322;279;38496;-75
2023/06/27 06:07:31;;;;;;;3.90;2.30;;;;;;;18.68;80.98;99783.38;105550;277;38571;-72
2023/06/27 06:10:06;;;;;;;4.00;2.30;;;;;;;18.66;80.89;99794.11;105570;277;38639;-71
2023/06/27 06:12:40;;;;;;;3.40;2.70;;;;;;;18.65;80.94;99796.16;105558;277;39249;-76
2023/06/27 06:15:14;;;;;;;5.40;2.80;;;;;;;18.62;80.87;99796.58;105407;278;38253;-72
2023/06/27 06:17:48;;;;;;;5.00;2.30;;;;;;;18.56;80.64;99797.58;105452;277;171503;-74
2023/06/27 06:20:23;;;;;;;3.80;2.50;;;;;;;18.52;80.88;99800.70;105414;277;38418;-72
2023/06/27 06:22:59;;;;;;;5.20;2.10;;;;;;;18.49;80.89;99804.83;105400;277;38944;-72
2023/06/27 06:25:34;;;;;;;3.00;2.00;;;;;;;18.46;81.02;99808.42;105393;277;38288;-72
2023/06/27 06:28:08;;;;;;;2.80;2.30;;;;;;;18.48;81.31;99807.56;105547;277;38989;-72
2023/06/27 06:30:42;;;;;;;2.50;2.30;;;;;;;18.45;81.40;99806.75;105107;277;782297;-72
2023/06/27 06:33:17;;;;;;;4.80;2.40;;;;;;;18.42;81.37;99811.66;105380;277;39191;-72
2023/06/27 06:35:52;;;;;;;3.00;2.10;;;;;;;18.45;82.15;99813.70;105616;277;38836;-72
2023/06/27 06:38:26;;;;;;;4.40;2.60;;;;;;;18.52;82.47;99815.59;105536;277;39236;-72
2023/06/27 06:41:00;;;;;;;6.30;3.30;;;;;;;18.65;82.87;99820.22;105537;277;38822;-72
2023/06/27 06:43:34;;;;;;;6.00;3.00;;;;;;;18.72;82.72;99812.21;105541;277;39400;-73
2023/06/27 06:46:09;;;;;;;6.40;2.30;;;;;;;18.80;82.45;99820.45;105972;277;39650;-71
2023/06/27 06:48:45;;;;;;;5.90;2.90;;;;;;;18.90;82.42;99824.39;105313;277;38482;-72
2023/06/27 06:51:19;;;;;;;8.00;3.00;;;;;;;18.97;82.17;99822.89;105564;277;39450;-72
2023/06/27 06:53:53;;;;;;;5.00;3.20;;;;;;;19.06;82.18;99827.34;105540;277;38591;-72
2023/06/27 06:56:28;;;;;;;5.60;2.90;;;;;;;19.16;82.37;99829.65;105591;277;38289;-73
2023/06/27 06:59:06;;;;;;;5.10;2.60;;;;;;;19.28;82.49;99826.70;105579;277;38725;-72
2023/06/27 07:01:41;;;;;;;4.30;2.50;;;;;;;19.41;82.15;99832.52;105982;277;38313;-72
2023/06/27 07:04:15;;;;;;;8.40;3.40;;;;;;;19.59;82.48;99836.90;105581;266;38630;-72
2023/06/27 07:06:49;;;;;;;4.10;2.50;;;;;;;19.85;82.11;99830.52;105621;277;39628;-72
2023/06/27 07:09:28;;;;;;;4.70;2.70;;;;;;;20.09;82.24;99836.85;105630;277;38518;-72
2023/06/27 07:12:00;;;;;;;;;;;;;;;20.47;81.99;99833.36;105593;277;39634;-73
2023/06/27 07:14:35;;;;;;;6.40;3.20;;;;;;;20.72;80.87;99831.27;105271;277;39975;-73
2023/06/27 07:17:10;;;;;;;6.90;3.10;;;;;;;21.01;79.57;99829.88;105583;277;38978;-73
2023/06/27 07:19:44;;;;;;;6.60;2.80;;;;;;;21.25;78.56;99832.69;105602;277;38280;-73
2023/06/27 07:22:18;;;;;;;4.10;2.60;;;;;;;21.48;77.77;99832.02;105593;277;40007;-73
2023/06/27 07:24:52;;;;;;;5.30;3.00;;;;;;;21.83;76.14;99832.00;105575;277;38800;-73
2023/06/27 07:27:26;;;;;;;5.10;2.60;;;;;;;22.25;75.84;99832.77;105616;277;38810;-73
2023/06/27 07:30:01;;;;;;;6.90;2.70;;;;;;;22.61;74.14;99833.05;106096;277;38795;-78
2023/06/27 07:32:36;;;;;;;4.10;2.60;;;;;;;22.90;73.83;99836.10;105679;277;38554;-73
2023/06/27 07:35:11;;;;;;;4.20;2.30;;;;;;;23.71;72.66;99837.30;105390;279;39117;-73
2023/06/27 07:37:45;;;;;;;3.90;2.70;;;;;;;24.17;69.19;99832.81;105654;277;38234;-73
2023/06/27 07:40:22;;;;;;;4.80;2.20;;;;;;;24.46;67.52;99832.07;106039;277;38276;-73
2023/06/27 07:42:56;;;;;;;4.80;2.30;;;;;;;24.78;65.88;99828.35;105678;277;38214;-74
2023/06/27 07:45:34;;;;;;;5.10;2.70;;;;;;;25.28;64.11;99829.80;105376;277;39415;-73
2023/06/27 07:48:09;;;;;;;3.90;2.20;;;;;;;25.60;62.91;99830.75;106042;277;39435;-73
2023/06/27 07:50:43;;;;;;;5.20;2.60;;;;;;;26.06;62.85;99829.23;105674;277;38442;-74
2023/06/27 07:53:20;;;;;;;5.40;2.20;;;;;;;26.60;60.47;99822.15;105331;279;38217;-74
2023/06/27 07:55:54;;;;;;;4.30;2.20;;;;;;;26.75;59.16;99820.02;105674;277;39412;-74
2023/06/27 07:58:29;;;;;;;5.10;2.00;;;;;;;26.51;57.94;99826.77;105706;277;38407;-73
2023/06/27 08:01:03;;;;;;;3.40;2.20;;;;;;;26.16;57.32;99823.38;105521;277;171119;-73
2023/06/27 08:03:40;;;;;;;7.40;2.80;;;;;;;25.78;57.45;99821.27;105672;277;39499;-72
2023/06/27 08:06:15;;;;;;;3.90;2.70;;;;;;;25.44;58.14;99823.63;105656;277;38594;-74
2023/06/27 08:08:50;;;;;;;5.50;2.50;;;;;;;25.61;58.73;99828.74;105676;277;38463;-73
2023/06/27 08:11:25;;;;;;;3.40;2.20;;;;;;;25.78;58.05;99829.83;105633;277;38802;-73
2023/06/27 08:13:59;;;;;;;7.30;3.20;;;;;;;26.42;57.57;99824.71;105613;277;38831;-73
2023/06/27 08:16:34;;;;;;;6.90;3.00;;;;;;;27.24;57.41;99821.86;105668;277;38898;-73
2023/06/27 08:19:10;;;;;;;5.50;2.10;;;;;;;28.22;55.44;99826.03;105403;279;38400;-74
2023/06/27 08:21:44;;;;;;;3.60;2.00;;;;;;;29.14;52.72;99828.16;105663;277;38623;-74
2023/06/27 08:24:19;;;;;;;3.30;1.80;;;;;;;29.27;49.45;99828.00;105688;277;38225;-74
2023/06/27 08:26:55;;;;;;;6.20;1.70;;;;;;;28.99;47.63;99832.46;105672;277;39440;-73
2023/06/27 08:29:30;;;;;;;6.40;2.50;;;;;;;28.53;47.00;99836.09;105670;277;38528;-73
2023/06/27 08:32:06;;;;;;;4.90;2.30;;;;;;;28.09;46.93;99841.49;105685;277;38231;-73
2023/06/27 08:34:41;;;;;;;4.00;1.90;;;;;;;27.67;46.97;99842.09;105576;277;173906;-73
2023/06/27 08:37:16;;;;;;;6.80;2.10;;;;;;;27.13;46.61;99849.27;105660;277;38352;-73
2023/06/27 08:39:52;;;;;;;4.00;2.30;;;;;;;26.94;47.73;99847.86;105661;277;38234;-73
2023/06/27 08:42:27;;;;;;;3.10;1.60;;;;;;;27.16;49.04;99853.58;105640;277;39556;-73
2023/06/27 08:45:02;;;;;;;5.10;1.90;;;;;;;27.77;47.67;99854.89;105361;277;40048;-73
2023/06/27 08:47:39;;;;;;;5.60;1.80;;;;;;;28.28;46.54;99859.91;105667;277;38509;-73
2023/06/27 08:50:15;;;;;;;4.40;1.50;;;;;;;28.94;44.15;99857.81;106053;277;38319;-73
2023/06/27 08:52:52;;;;;;;3.50;1.40;;;;;;;28.99;41.17;99860.27;105638;277;38783;-73
2023/06/27 08:55:35;;;;;;;3.80;1.70;;;;;;;28.59;42.45;99865.61;106019;277;38872;-73
2023/06/27 08:58:11;;;;;;;5.10;1.80;;;;;;;28.26;42.65;99867.37;106022;277;38918;-73
2023/06/27 09:00:47;;;;;;;5.50;1.90;;;;;;;27.87;42.42;99874.83;105636;277;38490;-73
2023/06/27 09:03:21;;;;;;;5.80;1.80;;;;;;;27.62;43.05;99879.59;105630;277;38634;-73
2023/06/27 09:05:56;;;;;;;4.80;2.10;;;;;;;27.48;43.36;99885.75;106049;277;38250;-73
2023/06/27 09:08:30;;;;;;;3.40;1.50;;;;;;;27.51;44.56;99887.31;105333;277;39896;-73
2023/06/27 09:11:09;;;;;;;3.40;1.90;;;;;;;27.85;43.63;99887.10;106050;277;39119;-73
2023/06/27 09:13:44;;;;;;;5.80;1.60;;;;;;;27.84;43.64;99882.36;105636;277;38406;-73
2023/06/27 09:16:18;;;;;;;9.20;2.00;;;;;;;27.72;43.55;99881.11;105608;277;38345;-73
2023/06/27 09:18:52;;;;;;;2.90;1.60;;;;;;;27.73;42.93;99879.64;105336;277;38033;-73
2023/06/27 09:21:26;;;;;;;5.90;1.40;;;;;;;27.56;42.57;99876.56;105647;277;38548;-73
2023/06/27 09:24:00;;;;;;;4.00;1.60;;;;;;;27.41;42.64;99879.73;105613;277;38724;-73
2023/06/27 09:26:34;;;;;;;2.80;1.50;;;;;;;27.37;43.74;99876.21;105597;266;38473;-72
2023/06/27 09:29:09;;;;;;;3.90;1.70;;;;;;;27.56;43.88;99881.59;105616;277;38509;-72
2023/06/27 09:31:44;;;;;;;2.60;1.60;;;;;;;27.74;43.16;99880.47;106002;277;38546;-72
2023/06/27 09:34:18;;;;;;;5.40;1.70;;;;;;;27.84;43.02;99875.81;105592;277;38713;-72
2023/06/27 09:36:52;;;;;;;4.20;1.40;;;;;;;27.72;42.49;99874.80;105558;277;39500;-72
2023/06/27 09:39:26;;;;;;;4.00;1.50;;;;;;;27.45;41.67;99876.74;105569;277;38617;-73
2023/06/27 09:42:00;;;;;;;4.80;1.50;;;;;;;27.12;42.77;99882.36;105571;277;38266;-73
2023/06/27 09:44:35;;;;;;;4.30;1.60;;;;;;;27.12;42.54;99881.86;105632;277;38747;-73
2023/06/27 09:47:13;;;;;;;3.60;1.90;;;;;;;27.20;42.70;99881.62;105580;277;38266;-73
2023/06/27 09:49:48;;;;;;;3.20;1.20;;;;;;;27.45;41.51;99877.67;105975;277;38434;-73
2023/06/27 09:52:22;;;;;;;3.40;1.50;;;;;;;27.57;40.09;99882.31;105984;285;38281;-73
2023/06/27 09:54:57;;;;;;;6.10;1.80;;;;;;;27.68;39.97;99877.32;105554;277;38307;-73
2023/06/27 09:57:34;;;;;;;4.20;1.50;;;;;;;27.82;39.43;99881.55;105565;277;40013;-73
2023/06/27 10:00:11;;;;;;;5.00;1.60;;;;;;;27.97;39.41;99881.91;105590;277;39288;-73
2023/06/27 10:02:48;;;;;;;5.30;1.20;;;;;;;27.99;38.72;99883.84;105554;277;39860;-73
2023/06/27 10:05:24;;;;;;;3.80;1.40;;;;;;;27.78;40.00;99879.03;105518;277;38219;-73
2023/06/27 10:07:58;;;;;;;3.70;1.40;;;;;;;27.85;39.85;99880.65;105553;277;39422;-73
2023/06/27 10:10:36;;;;;;;3.60;1.30;;;;;;;28.05;38.80;99888.69;105573;277;39103;-73
2023/06/27 10:13:11;;;;;;;7.10;1.50;;;;;;;28.17;38.13;99890.31;105551;277;38412;-73
2023/06/27 10:15:45;;;;;;;2.70;1.20;;;;;;;28.32;37.30;99896.06;105580;277;38332;-73
2023/06/27 10:18:19;;;;;;;3.00;1.50;;;;;;;28.34;37.57;99894.77;105567;277;39114;-73
2023/06/27 10:20:56;;;;;;;4.20;1.30;;;;;;;28.32;37.49;99896.06;105601;277;39624;-73
2023/06/27 10:23:30;;;;;;;3.10;1.10;;;;;;;28.07;37.28;99895.06;105558;277;38733;-73
2023/06/27 10:26:05;;;;;;;5.60;1.70;;;;;;;27.73;36.76;99895.02;105590;277;39416;-73
2023/06/27 10:28:40;;;;;;;2.70;1.50;;;;;;;27.71;37.17;99896.11;105354;277;38246;-73
2023/06/27 10:31:15;;;;;;;5.50;1.50;;;;;;;27.84;37.64;99894.48;105605;277;38376;-73
2023/06/27 10:33:51;;;;;;;4.00;1.40;;;;;;;28.02;37.44;99892.12;105839;277;173585;-73
2023/06/27 10:36:25;;;;;;;3.50;1.10;;;;;;;28.15;37.06;99885.95;105566;277;38551;-73
2023/06/27 10:38:59;;;;;;;5.30;1.30;;;;;;;28.25;36.71;99888.92;105599;273;38428;-73
2023/06/27 10:41:34;;;;;;;1.90;1.20;;;;;;;28.35;37.12;99889.54;105337;277;38752;-73
2023/06/27 10:44:15;;;;;;;3.90;1.30;;;;;;;28.23;36.15;99884.23;105588;277;38762;-73
2023/06/27 10:46:49;;;;;;;2.50;1.20;;;;;;;27.91;36.28;99878.86;105582;277;38756;-73
2023/06/27 10:49:24;;;;;;;3.10;1.20;;;;;;;27.75;36.56;99884.20;105335;277;39656;-73
2023/06/27 10:51:59;;;;;;;3.60;1.50;;;;;;;27.75;36.59;99884.33;105965;277;38359;-72
2023/06/27 10:54:33;;;;;;;2.80;1.20;;;;;;;27.74;36.01;99882.19;105570;277;38370;-72
2023/06/27 10:57:07;;;;;;;3.30;1.30;;;;;;;27.76;36.60;99877.83;105564;277;39027;-76
2023/06/27 10:59:45;;;;;;;5.20;1.50;;;;;;;27.74;37.12;99876.03;105560;277;39951;-72
2023/06/27 11:02:20;;;;;;;7.60;1.50;;;;;;;27.80;36.73;99876.13;105583;277;39024;-73
2023/06/27 11:04:56;;;;;;;3.60;1.40;;;;;;;27.64;35.70;99881.17;105569;277;39724;-73
2023/06/27 11:07:31;;;;;;;5.10;1.50;;;;;;;27.29;36.02;99883.80;105579;277;38483;-73
2023/06/27 11:10:05;;;;;;;3.60;1.50;;;;;;;27.10;36.49;99877.79;105315;279;40340;-73
2023/06/27 11:12:39;;;;;;;3.50;1.90;;;;;;;27.09;36.02;99879.35;105562;277;38471;-73
2023/06/27 11:15:14;;;;;;;4.60;1.50;;;;;;;27.02;36.70;99871.31;105509;277;173579;-73
2023/06/27 11:17:50;;;;;;;4.30;1.70;;;;;;;26.79;37.13;99873.83;105290;277;38606;-72
2023/06/27 11:20:28;;;;;;;4.00;1.50;;;;;;;26.49;36.86;99877.94;105597;277;38460;-72
2023/06/27 11:23:04;;;;;;;5.30;2.00;;;;;;;26.14;37.13;99879.50;105562;277;39562;-72
2023/06/27 11:25:43;;;;;;;5.40;1.50;;;;;;;25.76;37.82;99875.81;105606;277;38266;-72
2023/06/27 11:28:19;;;;;;;6.80;2.10;;;;;;;25.72;39.47;99873.94;105567;277;39441;-73
2023/06/27 11:31:04;;;;;;;5.10;1.70;;;;;;;25.85;39.76;99871.08;105950;277;38711;-73
2023/06/27 11:33:38;;;;;;;4.80;1.50;;;;;;;25.95;39.33;99870.70;105400;277;39264;-73
2023/06/27 11:36:13;;;;;;;3.30;1.40;;;;;;;25.89;39.13;99868.02;105597;281;38231;-72
2023/06/27 11:38:47;;;;;;;3.50;1.90;;;;;;;25.80;39.02;99863.09;105587;277;39491;-72
2023/06/27 11:41:23;;;;;;;5.60;1.80;;;;;;;25.67;38.73;99871.11;105592;277;39393;-72
2023/06/27 11:43:58;;;;;;;2.80;1.30;;;;;;;25.51;38.49;99876.27;105573;277;39419;-72
2023/06/27 11:46:32;;;;;;;3.60;1.30;;;;;;;25.34;39.02;99872.55;105950;277;38228;-73
2023/06/27 11:49:06;;;;;;;5.50;1.70;;;;;;;25.27;39.18;99865.30;105561;277;38405;-73
2023/06/27 11:51:44;;;;;;;3.90;1.70;;;;;;;25.23;39.33;99868.94;105585;277;38464;-72
2023/06/27 11:54:20;;;;;;;5.20;1.50;;;;;;;25.25;39.47;99860.17;105555;277;38234;-72
2023/06/27 11:57:03;;;;;;;3.30;1.50;;;;;;;25.40;39.98;99849.91;105560;277;38356;-72
2023/06/27 11:59:38;;;;;;;4.80;1.60;;;;;;;25.59;40.10;99841.06;105607;277;39171;-72
2023/06/27 12:02:12;;;;;;;5.20;1.60;;;;;;;25.77;39.79;99847.48;105264;277;40466;-73
2023/06/27 12:04:46;;;;;;;4.00;1.70;;;;;;;25.91;39.22;99837.20;105589;277;38398;-72
2023/06/27 12:07:23;;;;;;;5.60;1.80;;;;;;;26.09;38.92;99839.86;105543;277;39380;-72
2023/06/27 12:10:10;;;;;;;3.60;1.50;;;;;;;26.23;38.63;99840.58;105601;277;39177;-73